Time;durP1;ratioP1;P1;durP2;ratioP2;P2;SDS_P1;SDS_P2;PMS_P1;PMS_P2;Temp;Humidity;BMP_temperature;BMP_pressure;BME280_temperature;BME280_humidity;BME280_pressure;Samples;Min_cycle;Max_cycle;Signal;HPM_P1;HPM_P2
2022/09/24 00:01:33;;;;;;;8.98;5.57;;;12.10;99.90;;;;;;5028243;28;20103;-78
2022/09/24 00:04:04;;;;;;;9.55;5.65;;;12.10;99.90;;;;;;5024956;28;20040;-76
2022/09/24 00:06:34;;;;;;;6.13;5.00;;;12.10;99.90;;;;;;5030713;28;20030;-78
2022/09/24 00:08:59;;;;;;;9.50;5.40;;;12.10;99.90;;;;;;5023851;28;20017;-78
2022/09/24 00:11:27;;;;;;;9.85;5.75;;;12.10;99.90;;;;;;5028102;28;20033;-75
2022/09/24 00:13:57;;;;;;;8.57;5.80;;;12.10;99.90;;;;;;5024292;28;20045;-71
2022/09/24 00:16:30;;;;;;;8.57;4.93;;;12.10;99.90;;;;;;5025802;28;20076;-75
2022/09/24 00:18:57;;;;;;;7.38;5.20;;;12.10;99.90;;;;;;5027947;28;20040;-76
2022/09/24 00:21:28;;;;;;;11.93;6.32;;;12.10;99.90;;;;;;5047064;28;20025;-80
2022/09/24 00:24:00;;;;;;;10.02;5.38;;;12.10;99.90;;;;;;5029125;28;20025;-75
2022/09/24 00:29:17;;;;;;;6.70;4.97;;;12.10;99.90;;;;;;5030069;28;20076;-76
2022/09/24 00:31:42;;;;;;;7.93;4.97;;;12.10;99.90;;;;;;5022363;28;20017;-76
2022/09/24 00:34:09;;;;;;;7.78;5.00;;;12.00;99.90;;;;;;5031022;28;20475;-75
2022/09/24 00:36:37;;;;;;;8.75;4.80;;;12.00;99.90;;;;;;5025193;28;20030;-77
2022/09/24 00:39:04;;;;;;;6.38;4.22;;;12.10;99.90;;;;;;5030511;28;20029;-79
2022/09/24 00:41:32;;;;;;;7.25;4.70;;;12.00;99.90;;;;;;5027877;28;20033;-77
2022/09/24 00:44:21;;;;;;;7.07;4.63;;;12.00;99.90;;;;;;5029678;28;20060;-77
2022/09/24 00:46:52;;;;;;;7.47;4.80;;;12.00;99.90;;;;;;5032632;28;20029;-77
2022/09/24 00:49:19;;;;;;;6.88;4.78;;;12.00;99.90;;;;;;5030544;28;20169;-74
2022/09/24 00:51:48;;;;;;;5.72;4.25;;;12.00;99.90;;;;;;5034566;28;20459;-76
2022/09/24 00:54:21;;;;;;;9.73;5.07;;;12.00;99.90;;;;;;5030400;28;20095;-77
2022/09/24 00:56:56;;;;;;;7.30;4.80;;;12.00;99.90;;;;;;5027867;28;20029;-76
2022/09/24 00:59:23;;;;;;;8.55;4.72;;;12.00;99.90;;;;;;5028029;28;20039;-78
2022/09/24 01:01:57;;;;;;;7.38;4.75;;;12.00;99.90;;;;;;5041760;28;20027;-76
2022/09/24 01:04:27;;;;;;;;;;;12.00;99.90;;;;;;5024265;28;20035;-76
2022/09/24 01:06:53;;;;;;;8.55;4.53;;;12.00;99.90;;;;;;5029085;28;19909;-77
2022/09/24 01:09:20;;;;;;;7.72;4.75;;;12.10;99.90;;;;;;5028661;28;20033;-78
2022/09/24 01:12:21;;;;;;;9.25;4.82;;;12.10;99.90;;;;;;5027683;28;20026;-75
2022/09/24 01:14:50;;;;;;;8.00;4.50;;;12.10;99.90;;;;;;5032512;28;20045;-76
2022/09/24 01:17:24;;;;;;;8.70;4.63;;;12.10;99.90;;;;;;5032317;28;20021;-78
2022/09/24 01:20:14;;;;;;;7.20;4.70;;;12.10;99.90;;;;;;5034226;28;20032;-79
2022/09/24 01:22:57;;;;;;;7.35;4.65;;;12.10;99.90;;;;;;5029572;28;20029;-77
2022/09/24 01:25:47;;;;;;;8.95;4.47;;;12.10;99.90;;;;;;5031197;28;20026;-77
2022/09/24 01:28:18;;;;;;;8.50;5.22;;;12.10;99.90;;;;;;5030768;28;20132;-78
2022/09/24 01:30:48;;;;;;;7.75;4.30;;;12.00;99.90;;;;;;5034087;28;20022;-78
2022/09/24 01:33:19;;;;;;;6.75;5.03;;;12.00;99.90;;;;;;5033845;28;21186;-77
2022/09/24 01:35:52;;;;;;;8.45;4.45;;;12.00;99.90;;;;;;5033691;28;20040;-78
2022/09/24 01:38:22;;;;;;;8.80;4.97;;;11.90;99.90;;;;;;5034902;23;20424;-72
2022/09/24 01:40:50;;;;;;;10.07;4.43;;;12.00;99.90;;;;;;5022283;28;20487;-74
2022/09/24 01:43:26;;;;;;;7.72;4.47;;;12.00;99.90;;;;;;5022868;28;20033;-74
2022/09/24 01:46:01;;;;;;;5.82;4.38;;;11.90;99.90;;;;;;5024718;28;20040;-74
2022/09/24 01:48:27;;;;;;;12.35;4.93;;;11.90;99.90;;;;;;5029113;28;20489;-74
2022/09/24 01:51:13;;;;;;;6.78;4.55;;;11.90;99.90;;;;;;5027041;28;20032;-74
2022/09/24 01:54:08;;;;;;;6.78;4.90;;;11.90;99.90;;;;;;5023271;28;20036;-75
2022/09/24 01:56:48;;;;;;;8.13;5.40;;;11.90;99.90;;;;;;5025279;28;20069;-75
2022/09/24 01:59:39;;;;;;;10.68;6.40;;;11.90;99.90;;;;;;5041149;28;20500;-75
2022/09/24 02:02:27;;;;;;;8.80;6.40;;;11.90;99.90;;;;;;5024471;28;20029;-74
2022/09/24 02:05:18;;;;;;;8.68;6.18;;;11.90;99.90;;;;;;5022983;28;20037;-74
2022/09/24 02:08:16;;;;;;;13.35;7.32;;;11.90;99.90;;;;;;5041656;28;20033;-74
2022/09/24 02:11:22;;;;;;;8.30;6.50;;;11.90;99.90;;;;;;5028271;28;20032;-74
2022/09/24 02:13:59;;;;;;;8.38;5.78;;;11.80;99.90;;;;;;5024583;28;20036;-74
2022/09/24 02:16:40;;;;;;;9.68;5.90;;;11.80;99.90;;;;;;5024261;28;20085;-74
2022/09/24 02:19:19;;;;;;;7.43;5.25;;;11.80;99.90;;;;;;5027877;28;20386;-74
2022/09/24 02:21:46;;;;;;;10.20;6.45;;;11.80;99.90;;;;;;5026650;28;20079;-74
2022/09/24 02:24:50;;;;;;;10.55;5.82;;;11.80;99.90;;;;;;5028669;28;20453;-75
2022/09/24 02:27:17;;;;;;;7.70;5.07;;;11.80;99.90;;;;;;5026887;28;20041;-75
2022/09/24 02:29:43;;;;;;;6.63;4.80;;;11.80;99.90;;;;;;5026442;28;20087;-75
2022/09/24 02:32:13;;;;;;;7.95;5.30;;;11.80;99.90;;;;;;5027967;28;20440;-75
2022/09/24 02:34:45;;;;;;;9.02;5.10;;;11.80;99.90;;;;;;5027794;28;20025;-75
2022/09/24 02:37:13;;;;;;;11.30;4.50;;;11.80;99.90;;;;;;5025619;28;20033;-75
2022/09/24 02:39:39;;;;;;;9.85;4.97;;;11.80;99.90;;;;;;5035464;28;20047;-75
2022/09/24 02:42:14;;;;;;;7.10;4.80;;;11.80;99.90;;;;;;5024285;28;20135;-75
2022/09/24 02:44:56;;;;;;;8.05;5.10;;;11.80;99.90;;;;;;5027109;28;20029;-75
2022/09/24 02:47:22;;;;;;;6.45;4.35;;;11.80;99.90;;;;;;5025659;28;20021;-75
2022/09/24 02:49:51;;;;;;;8.80;5.40;;;11.80;99.90;;;;;;5039360;28;20030;-75
2022/09/24 02:52:23;;;;;;;9.55;6.05;;;11.80;99.90;;;;;;5020312;28;20025;-75
2022/09/24 02:54:49;;;;;;;10.15;6.03;;;11.90;99.90;;;;;;5026481;28;20037;-75
2022/09/24 02:57:20;;;;;;;14.07;7.85;;;11.90;99.90;;;;;;5026506;28;20116;-74
2022/09/24 02:59:46;;;;;;;9.93;7.25;;;11.90;99.90;;;;;;5047439;28;20033;-74
2022/09/24 03:02:30;;;;;;;11.10;6.95;;;11.90;99.90;;;;;;5032061;28;20040;-74
2022/09/24 03:04:58;;;;;;;9.63;6.72;;;11.90;99.90;;;;;;5027267;28;20406;-75
2022/09/24 03:07:30;;;;;;;10.15;6.57;;;11.90;99.90;;;;;;5025697;28;20108;-74
2022/09/24 03:09:58;;;;;;;9.25;6.88;;;11.90;99.90;;;;;;5027454;28;20026;-74
2022/09/24 03:12:55;;;;;;;14.18;7.13;;;11.90;99.90;;;;;;5029236;28;20017;-75
2022/09/24 03:15:30;;;;;;;11.23;7.53;;;11.90;99.90;;;;;;5023441;28;20389;-75
2022/09/24 03:17:56;;;;;;;12.48;7.15;;;11.90;99.90;;;;;;5042207;28;20580;-75
2022/09/24 03:20:33;;;;;;;10.93;7.28;;;11.90;99.90;;;;;;5027432;28;20147;-75
2022/09/24 03:23:14;;;;;;;13.98;7.88;;;11.80;99.90;;;;;;5025410;28;20021;-75
2022/09/24 03:25:43;;;;;;;12.77;7.50;;;11.80;99.90;;;;;;5029820;28;20032;-75
2022/09/24 03:28:15;;;;;;;10.50;7.43;;;11.80;99.90;;;;;;5031755;28;20036;-75
2022/09/24 03:30:59;;;;;;;11.60;7.95;;;11.80;99.90;;;;;;5025040;28;20033;-75
2022/09/24 03:33:26;;;;;;;14.27;7.25;;;11.80;99.90;;;;;;5044653;28;20030;-74
2022/09/24 03:36:08;;;;;;;12.02;7.50;;;11.80;99.90;;;;;;5028201;28;20398;-75
2022/09/24 03:38:35;;;;;;;12.90;7.75;;;11.80;99.90;;;;;;5031622;28;20025;-75
2022/09/24 03:41:01;;;;;;;9.70;7.22;;;11.80;99.90;;;;;;5031004;28;20537;-75
2022/09/24 03:43:31;;;;;;;11.40;7.55;;;11.70;99.90;;;;;;5026238;28;20022;-75
2022/09/24 03:45:59;;;;;;;11.38;6.95;;;11.70;99.90;;;;;;5045008;28;20037;-74
2022/09/24 03:48:39;;;;;;;10.00;7.03;;;11.80;99.90;;;;;;5028794;28;20026;-74
2022/09/24 03:51:10;;;;;;;21.15;8.40;;;11.80;99.90;;;;;;5036819;28;20131;-74
2022/09/24 03:53:39;;;;;;;14.02;7.68;;;11.70;99.90;;;;;;5032719;28;20032;-73
2022/09/24 03:56:14;;;;;;;12.85;6.82;;;11.70;99.90;;;;;;5031712;28;20033;-73
2022/09/24 03:58:46;;;;;;;11.48;7.30;;;11.70;99.90;;;;;;5027264;28;20075;-73
2022/09/24 04:01:12;;;;;;;15.32;7.68;;;11.70;99.90;;;;;;5028792;28;20033;-73
2022/09/24 04:03:40;;;;;;;11.32;7.18;;;11.70;99.90;;;;;;5029898;28;20041;-73
2022/09/24 04:06:07;;;;;;;13.27;7.53;;;11.70;99.90;;;;;;5030134;28;20037;-73
2022/09/24 04:08:44;;;;;;;11.50;6.88;;;11.70;99.90;;;;;;5029292;28;20025;-73
2022/09/24 04:11:10;;;;;;;10.52;7.38;;;11.70;99.90;;;;;;5031002;28;20088;-73
2022/09/24 04:13:45;;;;;;;11.70;8.27;;;11.70;99.90;;;;;;5032207;28;20014;-74
2022/09/24 04:16:10;;;;;;;8.65;6.45;;;11.70;99.90;;;;;;5030905;28;20025;-74
2022/09/24 04:18:36;;;;;;;12.45;7.75;;;11.70;99.90;;;;;;5027000;28;20108;-74
2022/09/24 04:21:01;;;;;;;10.50;7.43;;;11.70;99.90;;;;;;5024670;28;20021;-73
2022/09/24 04:23:30;;;;;;;12.85;8.48;;;11.70;99.90;;;;;;5027801;28;20113;-73
2022/09/24 04:26:04;;;;;;;12.25;7.25;;;11.70;99.90;;;;;;5028811;28;20025;-74
2022/09/24 04:28:31;;;;;;;10.95;7.80;;;11.70;99.90;;;;;;5029103;28;20028;-73
2022/09/24 04:30:56;;;;;;;8.35;6.63;;;11.70;99.90;;;;;;5029156;28;20040;-74
2022/09/24 04:33:22;;;;;;;9.25;6.97;;;11.80;99.90;;;;;;5027457;28;20021;-74
2022/09/24 04:35:47;;;;;;;9.55;6.07;;;11.80;99.90;;;;;;5028094;28;20104;-74
2022/09/24 04:38:17;;;;;;;11.60;6.70;;;11.80;99.90;;;;;;5027892;28;20041;-73
2022/09/24 04:40:52;;;;;;;7.07;5.70;;;11.80;99.90;;;;;;5025961;28;20057;-73
2022/09/24 04:43:17;;;;;;;9.27;6.15;;;11.80;99.90;;;;;;5025616;28;20044;-74
2022/09/24 04:45:46;;;;;;;8.57;6.13;;;11.80;99.90;;;;;;5030025;28;20079;-73
2022/09/24 04:48:14;;;;;;;11.48;6.70;;;11.80;99.90;;;;;;5024262;28;20022;-74
2022/09/24 04:50:40;;;;;;;9.57;6.55;;;11.80;99.90;;;;;;5030398;28;20383;-74
2022/09/24 04:53:06;;;;;;;12.07;6.90;;;11.80;99.90;;;;;;5027700;28;20029;-73
2022/09/24 04:55:35;;;;;;;11.07;6.63;;;11.80;99.90;;;;;;5028193;28;20025;-74
2022/09/24 04:58:04;;;;;;;8.52;6.07;;;11.80;99.90;;;;;;5027697;28;20037;-73
2022/09/24 05:00:32;;;;;;;9.07;7.13;;;11.80;99.90;;;;;;5027785;28;20456;-74
2022/09/24 05:03:06;;;;;;;10.75;6.82;;;11.80;99.90;;;;;;5024654;28;20115;-74
2022/09/24 05:05:35;;;;;;;12.20;7.03;;;11.80;99.90;;;;;;5022879;28;20397;-74
2022/09/24 05:08:03;;;;;;;10.02;7.13;;;11.90;99.90;;;;;;5024793;28;20021;-73
2022/09/24 05:10:56;;;;;;;14.63;7.38;;;11.90;99.90;;;;;;5024234;28;20030;-74
2022/09/24 05:13:22;;;;;;;18.17;7.07;;;11.90;99.90;;;;;;5043172;28;20478;-73
2022/09/24 05:15:48;;;;;;;10.68;6.72;;;11.90;99.90;;;;;;5028293;28;20021;-73
2022/09/24 05:18:13;;;;;;;10.50;6.63;;;11.90;99.90;;;;;;5027787;28;20033;-74
2022/09/24 05:20:45;;;;;;;12.48;5.68;;;11.90;99.90;;;;;;5026565;28;20390;-74
2022/09/24 05:23:11;;;;;;;9.48;5.97;;;11.90;99.90;;;;;;5024503;28;20053;-73
2022/09/24 05:27:07;;;;;;;8.80;6.00;;;12.00;99.90;;;;;;5024031;28;20050;-74
2022/09/24 05:28:26;;;;;;;9.68;6.30;;;12.00;99.90;;;;;;5013532;28;20030;-75
2022/09/24 05:31:07;;;;;;;7.93;5.55;;;12.00;99.90;;;;;;5012352;28;20119;-74
2022/09/24 05:33:36;;;;;;;7.28;5.30;;;12.00;99.90;;;;;;5014728;28;20025;-74
2022/09/24 05:36:03;;;;;;;9.70;5.60;;;12.00;99.90;;;;;;5029047;28;20045;-74
2022/09/24 05:38:35;;;;;;;8.43;5.30;;;12.00;99.90;;;;;;5024597;28;20033;-73
2022/09/24 05:41:09;;;;;;;7.57;5.35;;;12.00;99.90;;;;;;5027090;28;20041;-74
2022/09/24 05:43:35;;;;;;;8.77;5.97;;;12.00;99.90;;;;;;5025618;28;20025;-74
2022/09/24 05:46:05;;;;;;;10.00;5.15;;;12.10;99.90;;;;;;5027692;28;20884;-74
2022/09/24 05:48:30;;;;;;;8.65;5.03;;;12.10;99.90;;;;;;5026353;28;20022;-74
2022/09/24 05:51:08;;;;;;;10.05;5.20;;;12.10;99.90;;;;;;5030401;28;20032;-74
2022/09/24 05:53:34;;;;;;;13.73;5.97;;;12.10;99.90;;;;;;5026383;28;20209;-74
2022/09/24 05:56:02;;;;;;;7.70;5.45;;;12.10;99.90;;;;;;5029562;28;20029;-74
2022/09/24 05:58:28;;;;;;;9.07;5.97;;;12.10;99.90;;;;;;5025915;28;20048;-75
2022/09/24 06:00:54;;;;;;;7.88;4.78;;;12.20;99.90;;;;;;5037494;28;20025;-69
2022/09/24 06:03:20;;;;;;;8.95;5.28;;;12.20;99.90;;;;;;5025902;28;20029;-69
2022/09/24 06:05:49;;;;;;;10.00;5.82;;;12.20;99.90;;;;;;5027320;28;20025;-69
2022/09/24 06:08:16;;;;;;;8.27;5.30;;;12.20;99.90;;;;;;5026812;28;20022;-70
2022/09/24 06:10:48;;;;;;;7.30;5.82;;;12.20;99.90;;;;;;5022483;28;20104;-69
2022/09/24 06:13:17;;;;;;;8.52;5.53;;;12.30;99.90;;;;;;5027359;28;20030;-77
2022/09/24 06:15:43;;;;;;;9.95;6.10;;;12.30;99.90;;;;;;5023489;28;20398;-75
2022/09/24 06:18:15;;;;;;;8.52;5.60;;;12.30;99.90;;;;;;5036266;28;20124;-74
2022/09/24 06:20:40;;;;;;;8.90;5.55;;;12.40;99.90;;;;;;5028818;28;20609;-75
2022/09/24 06:23:06;;;;;;;7.20;5.47;;;12.40;99.90;;;;;;5028083;28;20040;-75
2022/09/24 06:25:35;;;;;;;7.15;5.65;;;12.50;99.90;;;;;;5027578;28;20543;-75
2022/09/24 06:28:04;;;;;;;11.23;5.35;;;12.50;99.90;;;;;;5028614;28;20377;-75
2022/09/24 06:30:37;;;;;;;9.13;5.60;;;12.50;99.90;;;;;;5040065;28;20029;-75
2022/09/24 06:33:05;;;;;;;8.90;5.60;;;12.60;99.90;;;;;;5043688;28;20056;-75
2022/09/24 06:35:35;;;;;;;7.80;5.70;;;12.60;99.90;;;;;;5026015;28;20486;-75
2022/09/24 06:38:02;;;;;;;12.18;6.10;;;12.70;99.90;;;;;;5028322;28;20010;-75
2022/09/24 06:40:27;;;;;;;11.73;6.03;;;12.70;99.90;;;;;;5025114;28;20040;-74
2022/09/24 06:42:53;;;;;;;10.32;5.75;;;12.70;99.90;;;;;;5025192;28;20038;-75
2022/09/24 06:45:20;;;;;;;7.65;5.80;;;12.80;99.90;;;;;;5023711;28;20025;-75
2022/09/24 06:48:00;;;;;;;11.93;6.57;;;12.80;99.90;;;;;;5023045;28;20030;-76
2022/09/24 06:50:27;;;;;;;9.05;6.22;;;12.90;99.90;;;;;;5021599;28;20034;-75
2022/09/24 06:52:59;;;;;;;9.13;6.25;;;12.90;99.90;;;;;;5029022;28;20067;-75
2022/09/24 06:55:28;;;;;;;11.40;6.35;;;12.90;99.90;;;;;;5029155;28;20064;-74
2022/09/24 06:58:10;;;;;;;9.70;7.03;;;13.00;99.90;;;;;;5031698;28;20042;-74
2022/09/24 07:00:37;;;;;;;9.90;7.32;;;13.10;99.90;;;;;;5046814;28;20029;-74
2022/09/24 07:03:04;;;;;;;11.05;7.32;;;13.10;99.90;;;;;;5028280;28;20033;-74
2022/09/24 07:05:30;;;;;;;12.15;7.35;;;13.10;99.90;;;;;;5029308;28;20025;-74
2022/09/24 07:08:01;;;;;;;12.55;8.23;;;13.10;99.90;;;;;;5026373;28;20022;-74
2022/09/24 07:10:33;;;;;;;13.27;7.32;;;13.10;99.90;;;;;;5030815;28;20561;-74
2022/09/24 07:12:59;;;;;;;11.98;7.55;;;13.20;99.90;;;;;;5033386;28;20082;-74
2022/09/24 07:15:27;;;;;;;10.57;7.25;;;13.20;99.90;;;;;;5030354;28;20068;-74
2022/09/24 07:17:57;;;;;;;13.05;7.18;;;13.20;99.90;;;;;;5032560;28;20160;-74
2022/09/24 07:20:28;;;;;;;9.77;6.10;;;13.30;99.90;;;;;;5030231;28;20485;-74
2022/09/24 07:22:57;;;;;;;9.20;6.47;;;13.30;99.90;;;;;;5029258;28;20025;-74
2022/09/24 07:25:28;;;;;;;9.82;6.30;;;13.30;99.90;;;;;;5024881;28;20032;-74
2022/09/24 07:28:05;;;;;;;9.18;6.93;;;13.30;99.90;;;;;;5014990;28;20363;-75
2022/09/24 07:30:32;;;;;;;14.68;7.55;;;13.30;99.90;;;;;;5031164;28;20025;-75
2022/09/24 07:32:57;;;;;;;8.85;7.20;;;13.40;99.90;;;;;;5032581;28;20029;-75
2022/09/24 07:35:24;;;;;;;11.45;7.07;;;13.40;99.90;;;;;;5030832;28;20128;-75
2022/09/24 07:38:05;;;;;;;13.75;7.57;;;13.40;99.90;;;;;;5045211;23;20417;-77
2022/09/24 07:40:31;;;;;;;9.63;7.32;;;13.50;99.90;;;;;;5028855;28;20064;-77
2022/09/24 07:43:00;;;;;;;8.80;7.35;;;13.50;99.90;;;;;;5031435;28;20050;-77
2022/09/24 07:45:35;;;;;;;13.05;8.38;;;13.60;99.90;;;;;;5027318;28;20417;-77
2022/09/24 07:48:14;;;;;;;13.13;7.82;;;13.60;99.90;;;;;;5031530;28;20025;-76
2022/09/24 07:50:41;;;;;;;10.07;7.80;;;13.70;99.90;;;;;;5028784;28;20068;-76
2022/09/24 07:53:16;;;;;;;11.02;7.50;;;13.70;99.90;;;;;;5033784;28;20026;-77
2022/09/24 07:55:48;;;;;;;12.52;7.63;;;13.80;99.90;;;;;;5035149;28;20108;-76
2022/09/24 07:58:14;;;;;;;10.60;7.80;;;13.80;99.90;;;;;;5049295;28;20505;-77
2022/09/24 08:00:42;;;;;;;10.77;7.43;;;13.80;99.90;;;;;;5016444;28;20117;-77
2022/09/24 08:03:11;;;;;;;10.85;6.68;;;13.80;99.90;;;;;;5015279;28;20037;-77
2022/09/24 08:06:00;;;;;;;10.93;7.68;;;13.90;99.90;;;;;;5016931;28;20485;-77
2022/09/24 08:08:35;;;;;;;11.07;8.48;;;13.90;99.90;;;;;;5026284;28;20014;-77
2022/09/24 08:11:09;;;;;;;17.15;9.70;;;13.90;99.90;;;;;;5029266;28;20057;-77
2022/09/24 08:13:35;;;;;;;14.73;9.00;;;13.90;99.90;;;;;;5034078;28;20022;-77
2022/09/24 08:16:02;;;;;;;16.38;9.00;;;13.90;99.90;;;;;;5034018;28;20025;-76
2022/09/24 08:18:30;;;;;;;11.95;7.97;;;13.90;99.90;;;;;;5027112;28;20392;-77
2022/09/24 08:21:04;;;;;;;12.95;8.93;;;14.00;99.90;;;;;;5029072;28;20437;-77
2022/09/24 08:23:31;;;;;;;;;;;13.90;99.90;;;;;;5027787;28;20045;-77
2022/09/24 08:25:56;;;;;;;11.88;8.10;;;14.00;99.90;;;;;;5028344;28;20412;-77
2022/09/24 08:28:22;;;;;;;15.32;7.43;;;14.00;99.90;;;;;;5031116;28;20057;-76
2022/09/24 08:31:17;;;;;;;14.52;7.85;;;14.00;99.90;;;;;;5025410;28;20021;-76
2022/09/24 08:33:45;;;;;;;10.68;7.40;;;14.00;99.90;;;;;;5008367;28;20552;-75
2022/09/24 08:36:10;;;;;;;10.77;7.20;;;14.00;99.90;;;;;;5025314;28;20030;-77
2022/09/24 08:38:39;;;;;;;11.68;8.43;;;14.00;99.90;;;;;;5027012;28;20060;-76
2022/09/24 08:41:11;;;;;;;14.52;8.38;;;14.00;99.90;;;;;;5023758;28;20493;-76
2022/09/24 08:43:49;;;;;;;10.90;7.20;;;14.00;99.90;;;;;;5025231;28;20480;-76
2022/09/24 08:49:29;;;;;;;10.60;7.10;;;14.10;99.90;;;;;;5033027;28;20040;-77
2022/09/24 08:52:32;;;;;;;9.43;7.63;;;14.10;99.90;;;;;;5021297;28;20014;-76
2022/09/24 08:55:05;;;;;;;9.82;5.43;;;14.10;99.90;;;;;;5022765;28;20030;-76
2022/09/24 08:57:38;;;;;;;8.70;5.47;;;14.10;99.90;;;;;;5031793;28;20068;-77
2022/09/24 09:00:06;;;;;;;9.57;6.43;;;14.10;99.90;;;;;;5019887;28;20034;-76
2022/09/24 09:02:48;;;;;;;7.38;4.97;;;14.10;99.90;;;;;;5038501;28;20029;-77
2022/09/24 09:06:02;;;;;;;9.70;5.78;;;14.10;99.90;;;;;;5036670;28;20033;-77
2022/09/24 09:08:52;;;;;;;10.13;6.13;;;14.10;99.90;;;;;;4971863;28;20400;-78
2022/09/24 09:11:27;;;;;;;10.10;5.88;;;14.10;99.90;;;;;;4968365;28;20043;-77
2022/09/24 09:14:05;;;;;;;8.10;4.95;;;14.10;99.90;;;;;;5024650;28;20076;-79
2022/09/24 09:16:56;;;;;;;9.05;5.30;;;14.10;99.90;;;;;;5029586;28;20030;-76
2022/09/24 09:19:32;;;;;;;9.30;5.93;;;14.20;99.90;;;;;;5029417;28;20038;-76
2022/09/24 09:22:26;;;;;;;6.85;5.10;;;14.20;99.90;;;;;;5032061;28;20025;-75
2022/09/24 09:25:03;;;;;;;11.20;6.50;;;14.20;99.90;;;;;;5017493;28;22016;-75
2022/09/24 09:27:28;;;;;;;7.97;5.30;;;14.20;99.90;;;;;;5025251;28;20025;-76
2022/09/24 09:30:01;;;;;;;8.32;5.00;;;14.30;99.90;;;;;;5023928;28;20036;-76
2022/09/24 09:32:37;;;;;;;7.72;5.05;;;14.30;99.90;;;;;;5044377;28;20386;-77
2022/09/24 09:35:31;;;;;;;6.80;3.92;;;14.30;99.90;;;;;;5026789;28;20045;-76
2022/09/24 09:38:34;;;;;;;5.00;3.67;;;14.30;99.90;;;;;;5033407;28;20098;-76
2022/09/24 09:41:17;;;;;;;4.85;3.10;;;14.40;99.90;;;;;;5033420;28;20025;-76
2022/09/24 09:43:45;;;;;;;4.78;3.20;;;14.40;99.90;;;;;;5033227;28;20558;-76
2022/09/24 09:46:26;;;;;;;5.13;3.15;;;14.40;99.90;;;;;;5017376;28;20113;-76
2022/09/24 09:49:06;;;;;;;6.75;4.40;;;14.40;99.90;;;;;;5013397;28;20097;-76
2022/09/24 09:51:40;;;;;;;6.95;3.00;;;14.40;99.90;;;;;;5032958;28;20112;-77
2022/09/24 09:54:06;;;;;;;6.75;3.58;;;14.40;99.90;;;;;;5013267;28;20014;-76
2022/09/24 09:56:35;;;;;;;5.03;2.65;;;14.40;99.90;;;;;;5021296;28;20084;-76
2022/09/24 09:59:16;;;;;;;5.32;3.38;;;14.40;99.90;;;;;;5033165;28;20031;-75
2022/09/24 10:01:45;;;;;;;4.70;2.78;;;14.40;99.90;;;;;;5032759;28;20022;-77
2022/09/24 10:04:33;;;;;;;3.83;2.60;;;14.40;99.90;;;;;;5019104;28;20022;-77
2022/09/24 10:07:15;;;;;;;4.85;3.25;;;14.40;99.90;;;;;;5020775;28;20100;-76
2022/09/24 10:09:42;;;;;;;6.30;4.00;;;14.50;99.90;;;;;;5024293;28;20020;-76
2022/09/24 10:12:14;;;;;;;7.53;4.50;;;14.60;99.90;;;;;;5032548;28;20100;-76
2022/09/24 10:14:39;;;;;;;7.95;4.53;;;14.60;99.90;;;;;;5026847;28;20095;-76
2022/09/24 10:17:05;;;;;;;7.45;4.88;;;14.60;99.90;;;;;;5023962;28;20029;-76
2022/09/24 10:19:37;;;;;;;7.05;4.47;;;14.70;99.90;;;;;;5027879;28;20116;-76
2022/09/24 10:22:27;;;;;;;7.00;4.40;;;14.70;99.90;;;;;;5024304;28;20021;-76
2022/09/24 10:24:56;;;;;;;6.65;4.22;;;14.80;99.90;;;;;;5026191;28;20033;-74
2022/09/24 10:27:33;;;;;;;4.82;3.30;;;14.90;99.90;;;;;;5016098;28;20061;-74
2022/09/24 10:30:33;;;;;;;7.50;2.90;;;14.90;99.90;;;;;;5022448;28;20026;-75
2022/09/24 10:33:01;;;;;;;5.32;3.20;;;15.00;99.90;;;;;;5046139;28;20029;-75
2022/09/24 10:35:28;;;;;;;4.50;3.30;;;15.00;99.90;;;;;;5022684;28;20038;-75
2022/09/24 10:38:18;;;;;;;6.55;4.22;;;15.10;99.90;;;;;;5024053;28;20057;-75
2022/09/24 10:40:45;;;;;;;6.80;4.30;;;15.20;99.90;;;;;;5026406;28;20029;-75
2022/09/24 10:43:21;;;;;;;5.30;3.95;;;15.30;99.90;;;;;;5035169;28;20125;-75
2022/09/24 10:45:49;;;;;;;7.13;4.03;;;15.30;99.90;;;;;;5021289;28;20553;-76
2022/09/24 10:48:47;;;;;;;4.70;3.38;;;15.40;99.90;;;;;;5023886;28;20375;-75
2022/09/24 10:51:39;;;;;;;6.38;3.30;;;15.50;99.90;;;;;;5004647;28;20069;-75
2022/09/24 10:54:25;;;;;;;5.28;3.67;;;15.50;99.90;;;;;;5030291;28;20025;-75
2022/09/24 10:56:54;;;;;;;3.50;2.70;;;15.70;99.90;;;;;;4998776;28;20096;-75
2022/09/24 11:00:02;;;;;;;5.22;3.47;;;15.70;99.90;;;;;;5024503;28;20021;-75
2022/09/24 11:02:47;;;;;;;3.88;2.70;;;15.90;99.90;;;;;;5026783;28;20033;-75
2022/09/24 11:05:41;;;;;;;4.93;3.05;;;16.00;99.90;;;;;;5037288;28;20030;-76
2022/09/24 11:08:13;;;;;;;4.60;3.05;;;16.10;99.90;;;;;;5019096;28;20026;-77
2022/09/24 11:11:10;;;;;;;3.90;2.60;;;16.10;99.90;;;;;;5026117;28;20173;-77
2022/09/24 11:14:20;;;;;;;4.07;2.83;;;16.20;99.90;;;;;;5024627;28;20048;-76
2022/09/24 11:17:04;;;;;;;2.88;2.55;;;16.20;99.90;;;;;;5012016;28;20534;-75
2022/09/24 11:19:30;;;;;;;;;;;16.30;99.90;;;;;;5012389;28;20109;-75
2022/09/24 11:22:18;;;;;;;5.03;2.25;;;16.30;99.90;;;;;;4997843;28;19935;-76
2022/09/24 11:24:46;;;;;;;3.97;2.33;;;16.40;99.90;;;;;;5010508;28;20152;-76
2022/09/24 11:27:36;;;;;;;2.90;1.95;;;16.40;99.90;;;;;;5011927;28;20017;-75
2022/09/24 11:30:15;;;;;;;3.53;1.83;;;16.40;99.90;;;;;;5010463;28;20026;-75
2022/09/24 11:32:46;;;;;;;3.75;2.17;;;16.40;99.90;;;;;;5010780;28;20112;-76
2022/09/24 11:35:53;;;;;;;4.60;2.92;;;16.50;99.90;;;;;;5010751;28;20026;-75
2022/09/24 11:38:44;;;;;;;4.78;3.15;;;16.50;99.90;;;;;;5011572;28;20092;-75
2022/09/24 11:41:22;;;;;;;5.90;3.00;;;16.50;99.90;;;;;;5012041;28;20510;-76
2022/09/24 11:44:10;;;;;;;6.63;2.92;;;16.50;99.90;;;;;;5014153;28;20026;-75
2022/09/24 11:46:57;;;;;;;5.75;2.95;;;16.50;99.90;;;;;;5015680;28;20088;-75
2022/09/24 11:49:35;;;;;;;5.50;2.67;;;16.40;99.90;;;;;;5015964;28;20028;-76
2022/09/24 11:52:15;;;;;;;6.63;3.28;;;16.50;99.90;;;;;;5015609;28;20026;-76
2022/09/24 11:54:59;;;;;;;5.65;3.00;;;16.50;99.90;;;;;;5015479;28;20359;-76
2022/09/24 11:57:28;;;;;;;4.88;2.53;;;16.50;99.90;;;;;;5015826;28;20029;-75
2022/09/24 12:00:11;;;;;;;4.25;2.78;;;16.60;99.90;;;;;;5014184;28;20030;-75
2022/09/24 12:03:32;;;;;;;2.72;2.20;;;16.50;99.90;;;;;;5015419;28;20029;-75
2022/09/24 12:06:19;;;;;;;2.20;1.52;;;16.60;99.90;;;;;;4985471;28;20049;-75
2022/09/24 12:09:06;;;;;;;3.60;2.65;;;16.70;99.90;;;;;;5015264;28;20026;-75
2022/09/24 12:11:56;;;;;;;3.65;2.63;;;16.80;99.90;;;;;;5015362;28;20056;-76
2022/09/24 12:14:28;;;;;;;5.35;3.10;;;16.80;99.90;;;;;;5015130;28;20018;-75
2022/09/24 12:17:08;;;;;;;4.95;2.47;;;16.80;99.90;;;;;;5014890;28;20490;-75
2022/09/24 12:19:52;;;;;;;3.85;2.53;;;16.70;99.90;;;;;;5033383;28;20064;-75
2022/09/24 12:22:19;;;;;;;5.43;3.03;;;16.70;99.90;;;;;;5032951;28;20133;-75
2022/09/24 12:24:57;;;;;;;4.07;2.25;;;16.70;99.90;;;;;;5035048;28;20029;-75
2022/09/24 12:27:35;;;;;;;3.00;2.45;;;16.60;99.90;;;;;;5034928;28;20105;-75
2022/09/24 12:33:24;;;;;;;5.32;3.45;;;16.50;99.90;;;;;;5034465;28;20504;-76
2022/09/24 12:36:22;;;;;;;4.57;2.97;;;16.40;99.90;;;;;;5033576;28;20045;-75
2022/09/24 12:39:09;;;;;;;4.80;2.90;;;16.30;99.90;;;;;;5034387;28;20123;-76
2022/09/24 12:41:43;;;;;;;5.20;3.72;;;16.30;99.90;;;;;;5049426;28;20025;-75
2022/09/24 12:44:09;;;;;;;6.40;3.40;;;16.20;99.90;;;;;;5034175;28;20363;-75
2022/09/24 12:46:47;;;;;;;7.45;3.92;;;16.20;99.90;;;;;;5034016;28;20028;-75
2022/09/24 12:49:25;;;;;;;5.85;3.85;;;16.20;99.90;;;;;;5034473;28;20021;-75
2022/09/24 12:52:17;;;;;;;6.97;3.63;;;16.10;99.90;;;;;;5032980;28;20022;-75
2022/09/24 12:54:44;;;;;;;9.23;5.40;;;16.10;99.90;;;;;;5032727;28;20029;-75
2022/09/24 12:57:18;;;;;;;6.57;4.47;;;16.00;99.90;;;;;;5033890;28;20030;-75
2022/09/24 12:59:51;;;;;;;6.80;4.38;;;16.00;99.90;;;;;;5034164;28;20029;-75
2022/09/24 13:02:27;;;;;;;8.50;5.70;;;16.00;99.90;;;;;;5034330;28;20021;-75
2022/09/24 13:05:06;;;;;;;12.43;5.97;;;16.00;99.90;;;;;;5029839;28;20022;-74
2022/09/24 13:07:43;;;;;;;8.18;4.97;;;16.00;99.90;;;;;;5027231;28;20501;-71
2022/09/24 13:10:21;;;;;;;8.10;4.72;;;15.80;99.90;;;;;;5029066;28;20073;-75
2022/09/24 13:12:47;;;;;;;6.07;4.30;;;15.80;99.90;;;;;;5033967;28;20026;-76
2022/09/24 13:15:34;;;;;;;7.80;4.28;;;15.70;99.90;;;;;;5033735;28;20386;-76
2022/09/24 13:18:07;;;;;;;8.63;4.70;;;15.60;99.90;;;;;;5033730;28;20067;-76
2022/09/24 13:20:35;;;;;;;8.23;5.30;;;15.60;99.90;;;;;;5033901;28;20377;-75
2022/09/24 13:23:17;;;;;;;8.23;4.78;;;15.50;99.90;;;;;;5033620;28;20036;-75
2022/09/24 13:26:01;;;;;;;11.77;6.00;;;15.40;99.90;;;;;;5033640;28;20021;-75
2022/09/24 13:28:47;;;;;;;9.55;5.70;;;15.40;99.90;;;;;;5031553;28;20108;-75
2022/09/24 13:31:25;;;;;;;8.73;5.57;;;15.30;99.90;;;;;;5035879;28;20021;-76